sensor_id;sensor_type;location;lat;lon;timestamp;P1;durP1;ratioP1;P2;durP2;ratioP2
46731;SDS011;32477;51.474;5.696;2023-06-10T00:01:50;13.25;;;8.15;;
46731;SDS011;32477;51.474;5.696;2023-06-10T00:04:20;11.32;;;8.55;;
46731;SDS011;32477;51.474;5.696;2023-06-10T00:06:46;15.32;;;8.93;;
46731;SDS011;32477;51.474;5.696;2023-06-10T00:09:13;10.20;;;7.63;;
46731;SDS011;32477;51.474;5.696;2023-06-10T00:11:39;11.57;;;7.72;;
46731;SDS011;32477;51.474;5.696;2023-06-10T00:14:05;9.32;;;7.72;;
46731;SDS011;32477;51.474;5.696;2023-06-10T00:16:31;17.80;;;8.68;;
46731;SDS011;32477;51.474;5.696;2023-06-10T00:18:59;16.80;;;8.32;;
46731;SDS011;32477;51.474;5.696;2023-06-10T00:21:25;19.25;;;8.30;;
46731;SDS011;32477;51.474;5.696;2023-06-10T00:23:55;15.70;;;7.65;;
46731;SDS011;32477;51.474;5.696;2023-06-10T00:26:22;10.95;;;8.25;;
46731;SDS011;32477;51.474;5.696;2023-06-10T00:28:48;13.90;;;8.15;;
46731;SDS011;32477;51.474;5.696;2023-06-10T00:31:14;13.50;;;8.45;;
46731;SDS011;32477;51.474;5.696;2023-06-10T00:33:40;9.65;;;7.63;;
46731;SDS011;32477;51.474;5.696;2023-06-10T00:36:06;10.65;;;7.68;;
46731;SDS011;32477;51.474;5.696;2023-06-10T00:38:31;10.38;;;7.88;;
46731;SDS011;32477;51.474;5.696;2023-06-10T00:40:58;11.85;;;8.30;;
46731;SDS011;32477;51.474;5.696;2023-06-10T00:43:23;13.70;;;7.75;;
46731;SDS011;32477;51.474;5.696;2023-06-10T00:45:49;11.30;;;8.05;;
46731;SDS011;32477;51.474;5.696;2023-06-10T00:48:16;13.00;;;9.23;;
46731;SDS011;32477;51.474;5.696;2023-06-10T00:50:43;14.00;;;8.55;;
46731;SDS011;32477;51.474;5.696;2023-06-10T00:53:11;13.52;;;8.73;;
46731;SDS011;32477;51.474;5.696;2023-06-10T00:55:37;12.82;;;7.85;;
46731;SDS011;32477;51.474;5.696;2023-06-10T00:58:03;12.70;;;8.20;;
46731;SDS011;32477;51.474;5.696;2023-06-10T01:00:29;12.35;;;8.13;;
46731;SDS011;32477;51.474;5.696;2023-06-10T01:02:55;11.75;;;8.88;;
46731;SDS011;32477;51.474;5.696;2023-06-10T01:05:21;14.15;;;8.63;;
46731;SDS011;32477;51.474;5.696;2023-06-10T01:08:07;12.73;;;9.30;;
46731;SDS011;32477;51.474;5.696;2023-06-10T01:10:43;14.15;;;9.02;;
46731;SDS011;32477;51.474;5.696;2023-06-10T01:13:16;18.25;;;8.68;;
46731;SDS011;32477;51.474;5.696;2023-06-10T01:15:43;14.52;;;9.35;;
46731;SDS011;32477;51.474;5.696;2023-06-10T01:18:10;16.55;;;9.02;;
46731;SDS011;32477;51.474;5.696;2023-06-10T01:20:40;27.63;;;10.05;;
46731;SDS011;32477;51.474;5.696;2023-06-10T01:23:08;17.17;;;9.98;;
46731;SDS011;32477;51.474;5.696;2023-06-10T01:25:37;14.45;;;10.57;;
46731;SDS011;32477;51.474;5.696;2023-06-10T01:31:08;16.98;;;9.38;;
46731;SDS011;32477;51.474;5.696;2023-06-10T01:33:37;12.88;;;9.13;;
46731;SDS011;32477;51.474;5.696;2023-06-10T01:36:07;14.30;;;9.52;;
46731;SDS011;32477;51.474;5.696;2023-06-10T01:38:36;14.57;;;9.25;;
46731;SDS011;32477;51.474;5.696;2023-06-10T01:41:11;12.48;;;9.32;;
46731;SDS011;32477;51.474;5.696;2023-06-10T01:43:39;13.82;;;8.38;;
46731;SDS011;32477;51.474;5.696;2023-06-10T01:46:05;18.45;;;9.55;;
46731;SDS011;32477;51.474;5.696;2023-06-10T01:48:32;16.58;;;9.13;;
46731;SDS011;32477;51.474;5.696;2023-06-10T01:50:58;13.73;;;9.82;;
46731;SDS011;32477;51.474;5.696;2023-06-10T01:53:23;14.40;;;9.88;;
46731;SDS011;32477;51.474;5.696;2023-06-10T01:55:49;13.68;;;9.52;;
46731;SDS011;32477;51.474;5.696;2023-06-10T01:58:15;13.50;;;9.75;;
46731;SDS011;32477;51.474;5.696;2023-06-10T02:00:41;15.73;;;9.68;;
46731;SDS011;32477;51.474;5.696;2023-06-10T02:03:07;15.77;;;9.88;;
46731;SDS011;32477;51.474;5.696;2023-06-10T02:05:32;12.90;;;9.23;;
46731;SDS011;32477;51.474;5.696;2023-06-10T02:07:58;17.30;;;9.63;;
46731;SDS011;32477;51.474;5.696;2023-06-10T02:10:24;13.05;;;9.38;;
46731;SDS011;32477;51.474;5.696;2023-06-10T02:12:50;15.23;;;9.93;;
46731;SDS011;32477;51.474;5.696;2023-06-10T02:15:15;13.23;;;10.15;;
46731;SDS011;32477;51.474;5.696;2023-06-10T02:17:41;13.38;;;9.90;;
46731;SDS011;32477;51.474;5.696;2023-06-10T02:20:07;13.45;;;9.45;;
46731;SDS011;32477;51.474;5.696;2023-06-10T02:22:35;15.13;;;9.82;;
46731;SDS011;32477;51.474;5.696;2023-06-10T02:25:02;14.77;;;10.27;;
46731;SDS011;32477;51.474;5.696;2023-06-10T02:27:28;12.10;;;9.82;;
46731;SDS011;32477;51.474;5.696;2023-06-10T02:29:55;14.20;;;10.07;;
46731;SDS011;32477;51.474;5.696;2023-06-10T02:32:21;14.38;;;10.00;;
46731;SDS011;32477;51.474;5.696;2023-06-10T02:34:47;14.55;;;9.60;;
46731;SDS011;32477;51.474;5.696;2023-06-10T02:37:14;14.68;;;10.23;;
46731;SDS011;32477;51.474;5.696;2023-06-10T02:39:40;19.60;;;11.13;;
46731;SDS011;32477;51.474;5.696;2023-06-10T02:42:06;13.30;;;9.20;;
46731;SDS011;32477;51.474;5.696;2023-06-10T02:44:32;14.88;;;10.80;;
46731;SDS011;32477;51.474;5.696;2023-06-10T02:46:58;14.52;;;11.38;;
46731;SDS011;32477;51.474;5.696;2023-06-10T02:49:23;16.30;;;11.13;;
46731;SDS011;32477;51.474;5.696;2023-06-10T02:51:52;17.17;;;11.25;;
46731;SDS011;32477;51.474;5.696;2023-06-10T02:54:19;17.55;;;11.90;;
46731;SDS011;32477;51.474;5.696;2023-06-10T02:56:45;18.50;;;11.57;;
46731;SDS011;32477;51.474;5.696;2023-06-10T02:59:12;17.13;;;11.07;;
46731;SDS011;32477;51.474;5.696;2023-06-10T03:01:38;17.65;;;11.35;;
46731;SDS011;32477;51.474;5.696;2023-06-10T03:04:04;15.68;;;11.15;;
46731;SDS011;32477;51.474;5.696;2023-06-10T03:06:30;23.98;;;12.90;;
46731;SDS011;32477;51.474;5.696;2023-06-10T03:08:59;17.30;;;12.60;;
46731;SDS011;32477;51.474;5.696;2023-06-10T03:11:25;18.50;;;11.00;;
46731;SDS011;32477;51.474;5.696;2023-06-10T03:13:51;18.33;;;12.25;;
46731;SDS011;32477;51.474;5.696;2023-06-10T03:16:18;20.25;;;11.82;;
46731;SDS011;32477;51.474;5.696;2023-06-10T03:18:44;16.77;;;12.32;;
46731;SDS011;32477;51.474;5.696;2023-06-10T03:21:10;25.45;;;11.43;;
46731;SDS011;32477;51.474;5.696;2023-06-10T03:23:36;21.08;;;12.68;;
46731;SDS011;32477;51.474;5.696;2023-06-10T03:26:02;16.92;;;13.07;;
46731;SDS011;32477;51.474;5.696;2023-06-10T03:28:30;19.98;;;13.85;;
46731;SDS011;32477;51.474;5.696;2023-06-10T03:30:56;17.40;;;12.63;;
46731;SDS011;32477;51.474;5.696;2023-06-10T03:33:22;23.65;;;13.95;;
46731;SDS011;32477;51.474;5.696;2023-06-10T03:35:47;19.00;;;13.40;;
46731;SDS011;32477;51.474;5.696;2023-06-10T03:38:16;22.55;;;12.93;;
46731;SDS011;32477;51.474;5.696;2023-06-10T03:40:42;20.80;;;13.32;;
46731;SDS011;32477;51.474;5.696;2023-06-10T03:43:07;21.63;;;14.52;;
46731;SDS011;32477;51.474;5.696;2023-06-10T03:45:33;17.40;;;13.45;;
46731;SDS011;32477;51.474;5.696;2023-06-10T03:47:59;20.13;;;14.30;;
46731;SDS011;32477;51.474;5.696;2023-06-10T03:50:26;19.98;;;13.00;;
46731;SDS011;32477;51.474;5.696;2023-06-10T03:52:51;23.65;;;14.18;;
46731;SDS011;32477;51.474;5.696;2023-06-10T03:55:17;18.20;;;13.10;;
46731;SDS011;32477;51.474;5.696;2023-06-10T03:57:43;21.40;;;14.85;;
46731;SDS011;32477;51.474;5.696;2023-06-10T04:00:09;17.88;;;13.20;;
46731;SDS011;32477;51.474;5.696;2023-06-10T04:02:36;19.88;;;14.15;;
46731;SDS011;32477;51.474;5.696;2023-06-10T04:05:06;23.35;;;14.73;;
46731;SDS011;32477;51.474;5.696;2023-06-10T04:07:32;21.77;;;14.63;;
46731;SDS011;32477;51.474;5.696;2023-06-10T04:09:59;18.98;;;14.45;;
46731;SDS011;32477;51.474;5.696;2023-06-10T04:12:25;28.50;;;16.42;;
46731;SDS011;32477;51.474;5.696;2023-06-10T04:14:50;21.27;;;14.25;;
46731;SDS011;32477;51.474;5.696;2023-06-10T04:17:17;26.50;;;15.52;;
46731;SDS011;32477;51.474;5.696;2023-06-10T04:19:42;23.40;;;14.82;;
46731;SDS011;32477;51.474;5.696;2023-06-10T04:22:08;23.20;;;14.27;;
46731;SDS011;32477;51.474;5.696;2023-06-10T04:24:34;20.38;;;14.93;;
46731;SDS011;32477;51.474;5.696;2023-06-10T04:27:00;20.90;;;14.10;;
46731;SDS011;32477;51.474;5.696;2023-06-10T04:29:26;21.52;;;14.48;;
46731;SDS011;32477;51.474;5.696;2023-06-10T04:31:52;20.83;;;15.55;;
46731;SDS011;32477;51.474;5.696;2023-06-10T04:34:17;25.20;;;15.88;;
46731;SDS011;32477;51.474;5.696;2023-06-10T04:36:43;19.90;;;15.07;;
46731;SDS011;32477;51.474;5.696;2023-06-10T04:39:08;17.20;;;13.40;;
46731;SDS011;32477;51.474;5.696;2023-06-10T04:41:34;23.92;;;15.35;;
46731;SDS011;32477;51.474;5.696;2023-06-10T04:44:00;20.23;;;14.40;;
46731;SDS011;32477;51.474;5.696;2023-06-10T04:46:25;20.42;;;14.73;;
46731;SDS011;32477;51.474;5.696;2023-06-10T04:48:51;19.77;;;14.45;;
46731;SDS011;32477;51.474;5.696;2023-06-10T04:51:16;20.10;;;13.98;;
46731;SDS011;32477;51.474;5.696;2023-06-10T04:53:42;24.80;;;13.77;;
46731;SDS011;32477;51.474;5.696;2023-06-10T04:56:08;22.23;;;13.63;;
46731;SDS011;32477;51.474;5.696;2023-06-10T04:58:34;18.80;;;12.82;;
46731;SDS011;32477;51.474;5.696;2023-06-10T05:01:00;19.70;;;12.95;;
46731;SDS011;32477;51.474;5.696;2023-06-10T05:03:26;20.63;;;12.10;;
46731;SDS011;32477;51.474;5.696;2023-06-10T05:05:52;19.17;;;12.25;;
46731;SDS011;32477;51.474;5.696;2023-06-10T05:08:18;17.42;;;12.20;;
46731;SDS011;32477;51.474;5.696;2023-06-10T05:10:43;18.02;;;12.68;;
46731;SDS011;32477;51.474;5.696;2023-06-10T05:13:09;18.38;;;12.95;;
46731;SDS011;32477;51.474;5.696;2023-06-10T05:15:35;20.70;;;12.85;;
46731;SDS011;32477;51.474;5.696;2023-06-10T05:18:00;29.77;;;13.23;;
46731;SDS011;32477;51.474;5.696;2023-06-10T05:20:27;16.17;;;12.70;;
46731;SDS011;32477;51.474;5.696;2023-06-10T05:22:54;18.50;;;13.05;;
46731;SDS011;32477;51.474;5.696;2023-06-10T05:25:20;19.45;;;12.43;;
46731;SDS011;32477;51.474;5.696;2023-06-10T05:27:45;19.17;;;12.32;;
46731;SDS011;32477;51.474;5.696;2023-06-10T05:30:11;19.17;;;13.10;;
46731;SDS011;32477;51.474;5.696;2023-06-10T05:32:37;20.38;;;12.45;;
46731;SDS011;32477;51.474;5.696;2023-06-10T05:35:03;17.05;;;12.52;;
46731;SDS011;32477;51.474;5.696;2023-06-10T05:37:29;15.52;;;11.52;;
46731;SDS011;32477;51.474;5.696;2023-06-10T05:39:55;20.38;;;12.32;;
46731;SDS011;32477;51.474;5.696;2023-06-10T05:42:21;22.35;;;12.63;;
46731;SDS011;32477;51.474;5.696;2023-06-10T05:44:46;22.92;;;13.02;;
46731;SDS011;32477;51.474;5.696;2023-06-10T05:47:12;23.35;;;12.32;;
46731;SDS011;32477;51.474;5.696;2023-06-10T05:49:38;22.23;;;12.00;;
46731;SDS011;32477;51.474;5.696;2023-06-10T05:52:03;17.70;;;11.90;;
46731;SDS011;32477;51.474;5.696;2023-06-10T05:54:29;15.82;;;12.80;;
46731;SDS011;32477;51.474;5.696;2023-06-10T05:56:55;24.85;;;12.20;;
46731;SDS011;32477;51.474;5.696;2023-06-10T05:59:21;17.92;;;11.50;;
46731;SDS011;32477;51.474;5.696;2023-06-10T06:01:47;21.50;;;12.43;;
46731;SDS011;32477;51.474;5.696;2023-06-10T06:04:15;18.17;;;11.93;;
46731;SDS011;32477;51.474;5.696;2023-06-10T06:06:41;17.52;;;11.90;;
46731;SDS011;32477;51.474;5.696;2023-06-10T06:09:06;16.60;;;12.02;;
46731;SDS011;32477;51.474;5.696;2023-06-10T06:11:33;18.02;;;10.90;;
46731;SDS011;32477;51.474;5.696;2023-06-10T06:13:59;21.95;;;11.95;;
46731;SDS011;32477;51.474;5.696;2023-06-10T06:16:25;16.67;;;11.23;;
46731;SDS011;32477;51.474;5.696;2023-06-10T06:18:50;24.33;;;12.18;;
46731;SDS011;32477;51.474;5.696;2023-06-10T06:21:16;28.50;;;12.30;;
46731;SDS011;32477;51.474;5.696;2023-06-10T06:23:41;16.02;;;11.73;;
46731;SDS011;32477;51.474;5.696;2023-06-10T06:26:07;16.02;;;11.85;;
46731;SDS011;32477;51.474;5.696;2023-06-10T06:28:33;17.75;;;12.88;;
46731;SDS011;32477;51.474;5.696;2023-06-10T06:30:59;21.85;;;11.98;;
46731;SDS011;32477;51.474;5.696;2023-06-10T06:33:24;18.08;;;11.68;;
46731;SDS011;32477;51.474;5.696;2023-06-10T06:35:51;19.30;;;10.90;;
46731;SDS011;32477;51.474;5.696;2023-06-10T06:38:17;17.48;;;10.23;;
46731;SDS011;32477;51.474;5.696;2023-06-10T06:40:42;20.30;;;11.23;;
46731;SDS011;32477;51.474;5.696;2023-06-10T06:43:08;17.50;;;11.18;;
46731;SDS011;32477;51.474;5.696;2023-06-10T06:45:34;14.77;;;10.55;;
46731;SDS011;32477;51.474;5.696;2023-06-10T06:47:59;14.88;;;10.77;;
46731;SDS011;32477;51.474;5.696;2023-06-10T06:50:25;16.88;;;10.75;;
46731;SDS011;32477;51.474;5.696;2023-06-10T06:52:51;16.92;;;11.13;;
46731;SDS011;32477;51.474;5.696;2023-06-10T06:55:16;14.00;;;10.45;;
46731;SDS011;32477;51.474;5.696;2023-06-10T06:57:42;17.83;;;11.70;;
46731;SDS011;32477;51.474;5.696;2023-06-10T07:00:08;17.20;;;10.65;;
46731;SDS011;32477;51.474;5.696;2023-06-10T07:02:34;13.07;;;9.40;;
46731;SDS011;32477;51.474;5.696;2023-06-10T07:05:00;19.10;;;9.55;;
46731;SDS011;32477;51.474;5.696;2023-06-10T07:07:26;14.75;;;10.13;;
46731;SDS011;32477;51.474;5.696;2023-06-10T07:09:52;16.10;;;10.18;;
46731;SDS011;32477;51.474;5.696;2023-06-10T07:12:18;13.07;;;9.40;;
46731;SDS011;32477;51.474;5.696;2023-06-10T07:14:44;11.85;;;9.13;;
46731;SDS011;32477;51.474;5.696;2023-06-10T07:17:09;18.67;;;9.10;;
46731;SDS011;32477;51.474;5.696;2023-06-10T07:19:35;17.70;;;9.45;;
46731;SDS011;32477;51.474;5.696;2023-06-10T07:22:01;14.63;;;9.00;;
46731;SDS011;32477;51.474;5.696;2023-06-10T07:24:26;11.48;;;8.60;;
46731;SDS011;32477;51.474;5.696;2023-06-10T07:26:52;19.85;;;9.82;;
46731;SDS011;32477;51.474;5.696;2023-06-10T07:29:18;16.77;;;9.18;;
46731;SDS011;32477;51.474;5.696;2023-06-10T07:31:43;11.90;;;7.55;;
46731;SDS011;32477;51.474;5.696;2023-06-10T07:34:09;14.45;;;8.00;;
46731;SDS011;32477;51.474;5.696;2023-06-10T07:36:34;16.83;;;8.43;;
46731;SDS011;32477;51.474;5.696;2023-06-10T07:39:01;17.27;;;8.38;;
46731;SDS011;32477;51.474;5.696;2023-06-10T07:41:27;16.58;;;8.30;;
46731;SDS011;32477;51.474;5.696;2023-06-10T07:43:53;11.68;;;8.07;;
46731;SDS011;32477;51.474;5.696;2023-06-10T07:46:20;21.33;;;7.65;;
46731;SDS011;32477;51.474;5.696;2023-06-10T07:48:47;12.80;;;7.70;;
46731;SDS011;32477;51.474;5.696;2023-06-10T07:51:13;16.05;;;8.25;;
46731;SDS011;32477;51.474;5.696;2023-06-10T07:53:40;14.35;;;7.28;;
46731;SDS011;32477;51.474;5.696;2023-06-10T07:56:06;9.73;;;7.15;;
46731;SDS011;32477;51.474;5.696;2023-06-10T07:58:32;17.00;;;7.63;;
46731;SDS011;32477;51.474;5.696;2023-06-10T08:00:57;16.48;;;7.90;;
46731;SDS011;32477;51.474;5.696;2023-06-10T08:03:23;13.27;;;7.05;;
46731;SDS011;32477;51.474;5.696;2023-06-10T08:05:49;9.40;;;6.93;;
46731;SDS011;32477;51.474;5.696;2023-06-10T08:08:14;14.13;;;8.23;;
46731;SDS011;32477;51.474;5.696;2023-06-10T08:10:40;15.70;;;7.93;;
46731;SDS011;32477;51.474;5.696;2023-06-10T08:13:06;13.73;;;7.60;;
46731;SDS011;32477;51.474;5.696;2023-06-10T08:15:32;11.95;;;6.63;;
46731;SDS011;32477;51.474;5.696;2023-06-10T08:17:58;13.48;;;7.75;;
46731;SDS011;32477;51.474;5.696;2023-06-10T08:20:24;17.23;;;7.72;;
46731;SDS011;32477;51.474;5.696;2023-06-10T08:22:49;15.95;;;7.90;;
46731;SDS011;32477;51.474;5.696;2023-06-10T08:25:15;10.23;;;7.43;;
46731;SDS011;32477;51.474;5.696;2023-06-10T08:27:40;15.65;;;6.75;;
46731;SDS011;32477;51.474;5.696;2023-06-10T08:30:06;10.18;;;6.45;;
46731;SDS011;32477;51.474;5.696;2023-06-10T08:32:33;12.68;;;7.40;;
46731;SDS011;32477;51.474;5.696;2023-06-10T08:34:59;19.40;;;6.22;;
46731;SDS011;32477;51.474;5.696;2023-06-10T08:37:24;15.27;;;7.53;;
46731;SDS011;32477;51.474;5.696;2023-06-10T08:39:50;12.55;;;6.72;;
46731;SDS011;32477;51.474;5.696;2023-06-10T08:44:49;14.38;;;6.60;;
46731;SDS011;32477;51.474;5.696;2023-06-10T08:47:24;9.30;;;6.95;;
46731;SDS011;32477;51.474;5.696;2023-06-10T08:49:50;10.38;;;6.28;;
46731;SDS011;32477;51.474;5.696;2023-06-10T08:52:18;11.50;;;6.38;;
46731;SDS011;32477;51.474;5.696;2023-06-10T08:54:59;9.13;;;7.03;;
46731;SDS011;32477;51.474;5.696;2023-06-10T08:57:27;13.10;;;6.32;;
46731;SDS011;32477;51.474;5.696;2023-06-10T08:59:56;10.10;;;7.38;;
46731;SDS011;32477;51.474;5.696;2023-06-10T09:02:22;12.63;;;6.38;;
46731;SDS011;32477;51.474;5.696;2023-06-10T09:04:49;12.00;;;7.53;;
46731;SDS011;32477;51.474;5.696;2023-06-10T09:07:15;11.68;;;6.97;;
46731;SDS011;32477;51.474;5.696;2023-06-10T09:09:44;8.80;;;6.72;;
46731;SDS011;32477;51.474;5.696;2023-06-10T09:12:11;11.30;;;6.40;;
46731;SDS011;32477;51.474;5.696;2023-06-10T09:14:38;11.90;;;6.15;;
46731;SDS011;32477;51.474;5.696;2023-06-10T09:17:04;19.20;;;6.97;;
46731;SDS011;32477;51.474;5.696;2023-06-10T09:19:31;13.63;;;6.40;;
46731;SDS011;32477;51.474;5.696;2023-06-10T09:21:57;16.55;;;6.82;;
46731;SDS011;32477;51.474;5.696;2023-06-10T09:24:24;11.40;;;6.75;;
46731;SDS011;32477;51.474;5.696;2023-06-10T09:26:50;15.25;;;6.57;;
46731;SDS011;32477;51.474;5.696;2023-06-10T09:29:26;21.42;;;6.82;;
46731;SDS011;32477;51.474;5.696;2023-06-10T09:31:52;11.70;;;6.55;;
46731;SDS011;32477;51.474;5.696;2023-06-10T09:34:17;8.57;;;6.57;;
46731;SDS011;32477;51.474;5.696;2023-06-10T09:36:43;11.23;;;6.47;;
46731;SDS011;32477;51.474;5.696;2023-06-10T09:39:17;9.15;;;6.60;;
46731;SDS011;32477;51.474;5.696;2023-06-10T09:41:44;8.90;;;6.30;;
46731;SDS011;32477;51.474;5.696;2023-06-10T09:44:11;12.73;;;7.38;;
46731;SDS011;32477;51.474;5.696;2023-06-10T09:46:41;10.90;;;6.57;;
46731;SDS011;32477;51.474;5.696;2023-06-10T09:49:07;8.10;;;6.43;;
46731;SDS011;32477;51.474;5.696;2023-06-10T09:51:33;9.68;;;7.10;;
46731;SDS011;32477;51.474;5.696;2023-06-10T09:53:59;13.48;;;6.45;;
46731;SDS011;32477;51.474;5.696;2023-06-10T09:56:37;10.30;;;6.70;;
46731;SDS011;32477;51.474;5.696;2023-06-10T09:59:03;11.68;;;7.20;;
46731;SDS011;32477;51.474;5.696;2023-06-10T10:01:31;20.20;;;7.00;;
46731;SDS011;32477;51.474;5.696;2023-06-10T10:03:58;7.72;;;6.00;;
46731;SDS011;32477;51.474;5.696;2023-06-10T10:06:24;9.05;;;5.82;;
46731;SDS011;32477;51.474;5.696;2023-06-10T10:08:51;8.63;;;7.57;;
46731;SDS011;32477;51.474;5.696;2023-06-10T10:11:17;9.95;;;6.43;;
46731;SDS011;32477;51.474;5.696;2023-06-10T10:13:48;6.95;;;6.22;;
46731;SDS011;32477;51.474;5.696;2023-06-10T10:16:36;13.30;;;6.70;;
46731;SDS011;32477;51.474;5.696;2023-06-10T10:19:15;11.05;;;6.85;;
46731;SDS011;32477;51.474;5.696;2023-06-10T10:22:06;14.55;;;6.82;;
46731;SDS011;32477;51.474;5.696;2023-06-10T10:24:41;13.70;;;6.72;;
46731;SDS011;32477;51.474;5.696;2023-06-10T10:27:14;7.57;;;6.50;;
46731;SDS011;32477;51.474;5.696;2023-06-10T10:30:01;15.90;;;6.30;;
46731;SDS011;32477;51.474;5.696;2023-06-10T10:32:32;9.98;;;6.40;;
46731;SDS011;32477;51.474;5.696;2023-06-10T10:35:08;8.50;;;6.60;;
46731;SDS011;32477;51.474;5.696;2023-06-10T10:37:43;16.75;;;6.88;;
46731;SDS011;32477;51.474;5.696;2023-06-10T10:40:09;7.38;;;6.63;;
46731;SDS011;32477;51.474;5.696;2023-06-10T10:42:36;6.70;;;6.00;;
46731;SDS011;32477;51.474;5.696;2023-06-10T10:45:03;7.70;;;6.60;;
46731;SDS011;32477;51.474;5.696;2023-06-10T10:47:30;13.00;;;6.95;;
46731;SDS011;32477;51.474;5.696;2023-06-10T10:49:57;9.25;;;6.20;;
46731;SDS011;32477;51.474;5.696;2023-06-10T10:52:24;12.02;;;6.88;;
46731;SDS011;32477;51.474;5.696;2023-06-10T10:54:52;10.30;;;6.05;;
46731;SDS011;32477;51.474;5.696;2023-06-10T10:57:19;9.75;;;6.00;;
46731;SDS011;32477;51.474;5.696;2023-06-10T11:02:15;12.65;;;6.25;;
46731;SDS011;32477;51.474;5.696;2023-06-10T11:04:48;8.13;;;6.30;;
46731;SDS011;32477;51.474;5.696;2023-06-10T11:07:14;8.73;;;6.20;;
46731;SDS011;32477;51.474;5.696;2023-06-10T11:12:40;14.02;;;6.25;;
46731;SDS011;32477;51.474;5.696;2023-06-10T11:15:09;11.68;;;6.25;;
46731;SDS011;32477;51.474;5.696;2023-06-10T11:17:35;7.13;;;5.95;;
46731;SDS011;32477;51.474;5.696;2023-06-10T11:20:00;14.82;;;6.60;;
46731;SDS011;32477;51.474;5.696;2023-06-10T11:22:26;13.13;;;6.43;;
46731;SDS011;32477;51.474;5.696;2023-06-10T11:24:52;9.43;;;6.05;;
46731;SDS011;32477;51.474;5.696;2023-06-10T11:27:18;11.45;;;5.95;;
46731;SDS011;32477;51.474;5.696;2023-06-10T11:32:30;12.82;;;6.50;;
46731;SDS011;32477;51.474;5.696;2023-06-10T11:34:57;10.88;;;6.72;;
46731;SDS011;32477;51.474;5.696;2023-06-10T11:37:23;16.20;;;6.57;;
46731;SDS011;32477;51.474;5.696;2023-06-10T11:39:53;6.82;;;5.45;;
46731;SDS011;32477;51.474;5.696;2023-06-10T11:42:20;13.02;;;7.10;;
46731;SDS011;32477;51.474;5.696;2023-06-10T11:44:49;10.88;;;5.65;;
46731;SDS011;32477;51.474;5.696;2023-06-10T11:47:16;7.15;;;5.95;;
46731;SDS011;32477;51.474;5.696;2023-06-10T11:49:42;14.27;;;6.60;;
46731;SDS011;32477;51.474;5.696;2023-06-10T11:52:08;9.40;;;6.18;;
46731;SDS011;32477;51.474;5.696;2023-06-10T11:54:34;10.15;;;6.38;;
46731;SDS011;32477;51.474;5.696;2023-06-10T11:56:59;7.35;;;5.82;;
46731;SDS011;32477;51.474;5.696;2023-06-10T11:59:28;10.25;;;6.70;;
46731;SDS011;32477;51.474;5.696;2023-06-10T12:01:57;9.80;;;6.68;;
46731;SDS011;32477;51.474;5.696;2023-06-10T12:04:23;11.27;;;5.93;;
46731;SDS011;32477;51.474;5.696;2023-06-10T12:06:51;15.00;;;6.00;;
46731;SDS011;32477;51.474;5.696;2023-06-10T12:09:22;8.57;;;6.05;;
46731;SDS011;32477;51.474;5.696;2023-06-10T12:17:20;11.65;;;6.50;;
46731;SDS011;32477;51.474;5.696;2023-06-10T12:19:48;7.95;;;6.18;;
46731;SDS011;32477;51.474;5.696;2023-06-10T12:22:14;13.90;;;6.30;;
46731;SDS011;32477;51.474;5.696;2023-06-10T12:24:57;10.27;;;6.20;;
46731;SDS011;32477;51.474;5.696;2023-06-10T12:27:27;6.18;;;5.47;;
46731;SDS011;32477;51.474;5.696;2023-06-10T12:29:55;12.73;;;6.45;;
46731;SDS011;32477;51.474;5.696;2023-06-10T12:32:34;6.28;;;5.68;;
46731;SDS011;32477;51.474;5.696;2023-06-10T12:35:03;9.07;;;6.53;;
46731;SDS011;32477;51.474;5.696;2023-06-10T12:37:30;7.50;;;5.78;;
46731;SDS011;32477;51.474;5.696;2023-06-10T12:39:59;7.05;;;6.13;;
46731;SDS011;32477;51.474;5.696;2023-06-10T12:42:26;6.68;;;5.70;;
46731;SDS011;32477;51.474;5.696;2023-06-10T12:44:55;10.15;;;6.40;;
46731;SDS011;32477;51.474;5.696;2023-06-10T12:49:58;11.13;;;6.03;;
46731;SDS011;32477;51.474;5.696;2023-06-10T12:52:24;8.63;;;6.50;;
46731;SDS011;32477;51.474;5.696;2023-06-10T12:54:50;8.90;;;5.57;;
46731;SDS011;32477;51.474;5.696;2023-06-10T12:57:16;7.60;;;5.88;;
46731;SDS011;32477;51.474;5.696;2023-06-10T12:59:42;13.02;;;6.30;;
46731;SDS011;32477;51.474;5.696;2023-06-10T13:02:15;8.07;;;6.18;;
46731;SDS011;32477;51.474;5.696;2023-06-10T13:04:43;10.45;;;6.40;;
46731;SDS011;32477;51.474;5.696;2023-06-10T13:07:09;14.50;;;6.32;;
46731;SDS011;32477;51.474;5.696;2023-06-10T13:09:35;7.82;;;6.22;;
46731;SDS011;32477;51.474;5.696;2023-06-10T13:12:01;7.00;;;6.05;;
46731;SDS011;32477;51.474;5.696;2023-06-10T13:14:27;7.65;;;6.10;;
46731;SDS011;32477;51.474;5.696;2023-06-10T13:16:53;12.05;;;6.20;;
46731;SDS011;32477;51.474;5.696;2023-06-10T13:19:20;7.35;;;6.15;;
46731;SDS011;32477;51.474;5.696;2023-06-10T13:21:49;10.15;;;6.78;;
46731;SDS011;32477;51.474;5.696;2023-06-10T13:24:14;9.95;;;6.05;;
46731;SDS011;32477;51.474;5.696;2023-06-10T13:26:40;7.30;;;6.40;;
46731;SDS011;32477;51.474;5.696;2023-06-10T13:29:06;16.35;;;6.93;;
46731;SDS011;32477;51.474;5.696;2023-06-10T13:31:32;8.00;;;6.13;;
46731;SDS011;32477;51.474;5.696;2023-06-10T13:33:58;8.43;;;5.57;;
46731;SDS011;32477;51.474;5.696;2023-06-10T13:36:24;9.18;;;5.93;;
46731;SDS011;32477;51.474;5.696;2023-06-10T13:38:50;10.05;;;5.57;;
46731;SDS011;32477;51.474;5.696;2023-06-10T13:41:16;6.78;;;5.68;;
46731;SDS011;32477;51.474;5.696;2023-06-10T13:43:41;8.40;;;5.57;;
46731;SDS011;32477;51.474;5.696;2023-06-10T13:46:07;8.07;;;5.85;;
46731;SDS011;32477;51.474;5.696;2023-06-10T13:48:33;8.52;;;5.78;;
46731;SDS011;32477;51.474;5.696;2023-06-10T13:50:59;9.52;;;5.53;;
46731;SDS011;32477;51.474;5.696;2023-06-10T13:53:25;9.40;;;6.13;;
46731;SDS011;32477;51.474;5.696;2023-06-10T13:55:50;16.05;;;7.28;;
46731;SDS011;32477;51.474;5.696;2023-06-10T13:58:16;8.18;;;6.25;;
46731;SDS011;32477;51.474;5.696;2023-06-10T14:00:42;11.35;;;6.68;;
46731;SDS011;32477;51.474;5.696;2023-06-10T14:03:07;10.48;;;6.18;;
46731;SDS011;32477;51.474;5.696;2023-06-10T14:05:33;8.55;;;5.95;;
46731;SDS011;32477;51.474;5.696;2023-06-10T14:07:59;9.73;;;5.93;;
46731;SDS011;32477;51.474;5.696;2023-06-10T14:10:25;10.18;;;5.97;;
46731;SDS011;32477;51.474;5.696;2023-06-10T14:12:51;7.50;;;6.18;;
46731;SDS011;32477;51.474;5.696;2023-06-10T14:15:16;7.57;;;6.78;;
46731;SDS011;32477;51.474;5.696;2023-06-10T14:17:42;11.15;;;6.82;;
46731;SDS011;32477;51.474;5.696;2023-06-10T14:20:08;16.63;;;8.32;;
46731;SDS011;32477;51.474;5.696;2023-06-10T14:22:34;22.83;;;11.20;;
46731;SDS011;32477;51.474;5.696;2023-06-10T14:24:59;7.93;;;7.13;;
46731;SDS011;32477;51.474;5.696;2023-06-10T14:27:25;8.77;;;6.30;;
46731;SDS011;32477;51.474;5.696;2023-06-10T14:29:51;13.55;;;7.00;;
46731;SDS011;32477;51.474;5.696;2023-06-10T14:32:16;7.95;;;7.10;;
46731;SDS011;32477;51.474;5.696;2023-06-10T14:34:42;15.20;;;7.53;;
46731;SDS011;32477;51.474;5.696;2023-06-10T14:37:09;8.23;;;6.60;;
46731;SDS011;32477;51.474;5.696;2023-06-10T14:39:35;11.57;;;7.82;;
46731;SDS011;32477;51.474;5.696;2023-06-10T14:42:01;11.00;;;7.65;;
46731;SDS011;32477;51.474;5.696;2023-06-10T14:44:27;11.32;;;7.75;;
46731;SDS011;32477;51.474;5.696;2023-06-10T14:46:53;12.63;;;7.32;;
46731;SDS011;32477;51.474;5.696;2023-06-10T14:49:18;14.23;;;7.07;;
46731;SDS011;32477;51.474;5.696;2023-06-10T14:51:44;9.20;;;7.30;;
46731;SDS011;32477;51.474;5.696;2023-06-10T14:54:10;15.90;;;7.30;;